createdAt,value
2018-12-07T00:01:44.070Z,22.00
2018-12-07T00:06:46.397Z,15.33
2018-12-07T00:11:48.157Z,18.43
2018-12-07T00:16:50.119Z,13.27
2018-12-07T00:21:51.907Z,14.83
2018-12-07T00:26:53.695Z,13.97
2018-12-07T00:31:56.159Z,19.50
2018-12-07T00:36:59.282Z,16.63
2018-12-07T00:42:01.376Z,20.07
2018-12-07T00:47:03.870Z,19.07
2018-12-07T00:52:05.949Z,22.83
2018-12-07T00:57:08.238Z,24.73
2018-12-07T01:02:10.733Z,26.87
2018-12-07T01:07:15.349Z,45.60
2018-12-07T01:12:18.938Z,39.97
2018-12-07T01:17:21.691Z,65.93
2018-12-07T01:22:25.568Z,77.03
2018-12-07T01:27:28.117Z,83.10
2018-12-07T01:32:35.527Z,147.23
2018-12-07T01:37:40.162Z,190.20
2018-12-07T01:42:42.969Z,211.47
2018-12-07T01:47:45.467Z,199.03
2018-12-07T01:52:47.350Z,200.73
2018-12-07T01:57:50.268Z,230.03
2018-12-07T02:02:52.090Z,195.03
2018-12-07T02:07:53.892Z,191.83
2018-12-07T02:13:02.700Z,257.53
2018-12-07T02:18:12.301Z,295.47
2018-12-07T02:23:14.799Z,303.63
2018-12-07T02:28:16.786Z,298.30
2018-12-07T02:33:19.165Z,211.37
2018-12-07T02:38:21.665Z,223.90
2018-12-07T02:43:23.449Z,208.13
2018-12-07T02:48:25.426Z,210.43
2018-12-07T02:53:28.535Z,184.03
2018-12-07T02:58:30.833Z,75.67
2018-12-07T03:03:32.621Z,133.50
2018-12-07T03:08:47.040Z,126.97
2018-12-07T03:13:49.564Z,161.63
2018-12-07T03:18:51.870Z,134.27
2018-12-07T03:29:22.848Z,131.03
2018-12-07T03:34:24.727Z,152.10
2018-12-07T03:39:26.619Z,183.17
2018-12-07T03:44:28.906Z,176.97
2018-12-07T03:49:30.983Z,172.17
2018-12-07T03:54:33.070Z,208.63
2018-12-07T03:59:34.949Z,141.87
2018-12-07T04:04:36.823Z,189.93
2018-12-07T04:09:38.701Z,190.43
2018-12-07T04:14:47.806Z,125.47
2018-12-07T04:19:49.824Z,162.63
2018-12-07T04:24:52.324Z,136.47
2018-12-07T04:35:26.387Z,144.27
2018-12-07T04:40:28.264Z,145.40
2018-12-07T04:45:30.345Z,145.60
2018-12-07T04:50:32.652Z,165.93
2018-12-07T04:55:34.921Z,172.50
2018-12-07T05:00:37.617Z,130.43
2018-12-07T05:05:39.701Z,167.23
2018-12-07T05:10:41.581Z,220.77
2018-12-07T05:15:44.279Z,165.83
2018-12-07T05:20:46.363Z,167.83
2018-12-07T05:25:48.445Z,147.13
2018-12-07T05:30:50.533Z,141.87
2018-12-07T05:35:53.020Z,144.93
2018-12-07T05:40:55.308Z,91.33
2018-12-07T05:45:57.058Z,71.77
2018-12-07T05:50:59.271Z,171.43
2018-12-07T05:56:01.374Z,128.37
2018-12-07T06:01:03.411Z,151.90
2018-12-07T06:06:05.336Z,175.27
2018-12-07T06:11:07.836Z,78.40
2018-12-07T06:16:09.763Z,163.13
2018-12-07T06:21:11.938Z,79.90
2018-12-07T06:26:13.736Z,63.40
2018-12-07T06:31:15.945Z,132.90
2018-12-07T06:36:17.740Z,135.10
2018-12-07T06:41:20.164Z,125.63
2018-12-07T06:46:22.425Z,93.83
2018-12-07T06:51:25.156Z,166.07
2018-12-07T06:56:26.979Z,82.20
2018-12-07T07:01:29.063Z,53.83
2018-12-07T07:06:32.136Z,198.03
2018-12-07T07:11:37.391Z,43.90
2018-12-07T07:16:39.441Z,127.47
2018-12-07T07:21:42.697Z,38.53
2018-12-07T07:26:44.777Z,30.80
2018-12-07T07:31:46.525Z,26.80
2018-12-07T07:36:48.302Z,18.90
2018-12-07T07:41:53.791Z,21.10
2018-12-07T07:46:56.001Z,16.33
2018-12-07T07:51:57.792Z,13.47
2018-12-07T07:57:01.086Z,14.77
2018-12-07T08:07:32.768Z,5.70
2018-12-07T08:12:35.236Z,7.67
2018-12-07T08:17:37.015Z,6.73
2018-12-07T08:28:08.686Z,4.80
2018-12-07T08:33:10.996Z,5.90
2018-12-07T08:38:12.732Z,5.03
2018-12-07T08:43:15.349Z,4.87
2018-12-07T08:48:17.408Z,4.10
2018-12-07T08:53:19.192Z,4.93
2018-12-07T08:58:21.054Z,5.20
2018-12-07T09:03:23.454Z,5.93
2018-12-07T09:08:25.216Z,5.53
2018-12-07T09:13:28.516Z,2.10
2018-12-07T09:18:30.661Z,2.70
2018-12-07T09:23:32.431Z,3.00
2018-12-07T09:28:34.448Z,2.77
2018-12-07T09:33:36.240Z,3.67
2018-12-07T09:38:38.320Z,3.20
2018-12-07T09:43:40.419Z,2.63
2018-12-07T09:48:42.261Z,3.30
2018-12-07T09:53:44.048Z,1.90
2018-12-07T09:58:46.778Z,2.33
2018-12-07T10:03:48.955Z,2.00
2018-12-07T10:08:50.760Z,3.90
2018-12-07T10:13:52.886Z,4.13
2018-12-07T10:18:54.684Z,4.23
2018-12-07T10:23:57.592Z,3.87
2018-12-07T10:28:59.756Z,4.37
2018-12-07T10:34:01.741Z,4.87
2018-12-07T10:39:04.901Z,7.20
2018-12-07T10:44:07.300Z,8.37
2018-12-07T10:49:09.025Z,4.27
2018-12-07T10:54:10.781Z,3.40
2018-12-07T10:59:13.691Z,7.10
2018-12-07T11:04:21.348Z,5.30
2018-12-07T11:09:28.995Z,4.60
2018-12-07T11:14:36.675Z,3.27
2018-12-07T11:19:45.178Z,2.37
2018-12-07T11:25:11.512Z,2.70
2018-12-07T11:30:19.288Z,2.03
2018-12-07T11:35:23.423Z,1.83
2018-12-07T11:40:25.168Z,1.40
2018-12-07T11:45:30.004Z,1.97
2018-12-07T11:50:35.351Z,1.67
2018-12-07T11:55:38.496Z,1.80
2018-12-07T12:00:40.269Z,1.50
2018-12-07T12:05:42.343Z,2.13
2018-12-07T12:10:44.068Z,0.97
2018-12-07T12:15:45.861Z,1.57
2018-12-07T12:20:47.954Z,2.23
2018-12-07T12:25:50.008Z,2.03
2018-12-07T12:30:52.053Z,2.20
2018-12-07T12:35:53.832Z,1.70
2018-12-07T12:40:56.030Z,1.30
2018-12-07T12:45:57.752Z,1.97
2018-12-07T12:50:59.516Z,2.60
2018-12-07T12:56:01.650Z,2.00
2018-12-07T13:01:03.680Z,1.50
2018-12-07T13:06:05.450Z,2.50
2018-12-07T13:11:07.249Z,2.03
2018-12-07T13:16:11.249Z,1.73
2018-12-07T13:21:14.261Z,5.37
2018-12-07T13:26:16.297Z,2.37
2018-12-07T13:31:18.061Z,2.23
2018-12-07T13:36:20.041Z,3.10
2018-12-07T13:41:21.821Z,3.47
2018-12-07T13:46:23.853Z,3.73
2018-12-07T13:51:31.709Z,4.53
2018-12-07T13:56:35.269Z,6.73
2018-12-07T14:01:37.252Z,8.67
2018-12-07T14:06:39.328Z,12.20
2018-12-07T14:11:42.114Z,15.10
2018-12-07T14:16:44.486Z,24.73
2018-12-07T14:21:46.346Z,19.37
2018-12-07T14:26:48.424Z,16.63
2018-12-07T14:31:50.640Z,14.90
2018-12-07T14:36:52.452Z,9.43
2018-12-07T14:41:54.250Z,8.57
2018-12-07T14:46:57.122Z,9.77
2018-12-07T14:51:59.417Z,10.53
2018-12-07T14:57:01.336Z,8.53
2018-12-07T15:02:03.397Z,7.50
2018-12-07T15:07:05.469Z,15.43
2018-12-07T15:12:07.441Z,9.83
2018-12-07T15:17:12.440Z,10.83
2018-12-07T15:22:16.342Z,6.70
2018-12-07T15:27:18.413Z,9.00
2018-12-07T15:32:20.542Z,9.10
2018-12-07T15:37:22.788Z,14.17
2018-12-07T15:42:24.874Z,18.70
2018-12-07T15:47:29.878Z,20.80
2018-12-07T15:52:31.896Z,20.40
2018-12-07T15:57:34.119Z,17.77
2018-12-07T16:02:36.952Z,15.43
2018-12-07T16:07:38.752Z,14.83
2018-12-07T16:12:40.731Z,14.70
2018-12-07T16:17:43.072Z,10.60
2018-12-07T16:22:44.986Z,9.87
2018-12-07T16:27:47.115Z,14.53
2018-12-07T16:32:49.162Z,11.70
2018-12-07T16:37:51.227Z,6.17
2018-12-07T16:42:53.332Z,7.93
2018-12-07T16:47:55.778Z,11.77
2018-12-07T16:52:57.627Z,6.47
2018-12-07T16:57:59.965Z,6.33
2018-12-07T17:03:02.154Z,9.87
2018-12-07T17:08:04.492Z,7.27
2018-12-07T17:13:06.486Z,8.40
2018-12-07T17:18:08.700Z,11.23
2018-12-07T17:23:11.637Z,9.77
2018-12-07T17:28:14.260Z,13.40
2018-12-07T17:33:17.438Z,10.93
2018-12-07T17:38:23.128Z,11.87
2018-12-07T17:43:26.192Z,15.60
2018-12-07T17:48:28.823Z,11.07
2018-12-07T17:53:32.629Z,16.20
2018-12-07T17:58:37.011Z,16.60
2018-12-07T18:03:39.686Z,16.23
2018-12-07T18:08:42.303Z,15.20
2018-12-07T18:13:45.119Z,17.43
2018-12-07T18:18:48.792Z,11.17
2018-12-07T18:23:52.375Z,17.83
2018-12-07T18:28:56.636Z,20.70
2018-12-07T18:34:01.808Z,19.60
2018-12-07T18:39:10.918Z,15.60
2018-12-07T18:44:13.899Z,12.33
2018-12-07T18:49:17.030Z,13.67
2018-12-07T18:54:19.618Z,9.20
2018-12-07T18:59:25.012Z,12.90
2018-12-07T19:04:30.371Z,13.60
2018-12-07T19:09:33.456Z,23.37
2018-12-07T19:14:36.706Z,13.13
2018-12-07T19:19:40.014Z,18.97
2018-12-07T19:24:45.833Z,15.43
2018-12-07T19:29:48.888Z,21.80
2018-12-07T19:34:52.289Z,9.67
2018-12-07T19:39:55.661Z,6.23
2018-12-07T19:44:59.295Z,11.10
2018-12-07T19:50:03.610Z,30.70
2018-12-07T19:55:07.350Z,25.67
2018-12-07T20:00:13.823Z,35.53
2018-12-07T20:05:26.608Z,40.17
2018-12-07T20:10:32.812Z,37.43
2018-12-07T20:38:13.359Z,61.67
2018-12-07T20:43:16.506Z,61.63
2018-12-07T20:48:21.523Z,60.73
2018-12-07T20:53:25.219Z,52.50
2018-12-07T20:58:28.420Z,48.17
2018-12-07T21:04:00.111Z,60.50
2018-12-07T21:09:22.725Z,50.87
2018-12-07T21:14:26.078Z,40.40
2018-12-07T21:19:28.610Z,42.93
2018-12-07T21:24:31.864Z,32.23
2018-12-07T21:29:34.014Z,35.70
2018-12-07T21:35:02.176Z,24.90
2018-12-07T21:40:10.885Z,23.23
2018-12-07T21:45:12.988Z,46.28
2018-12-07T21:50:20.267Z,36.77
2018-12-07T21:55:22.216Z,43.33
2018-12-07T22:00:24.803Z,42.37
2018-12-07T22:05:27.036Z,44.10
2018-12-07T22:10:32.262Z,60.07
2018-12-07T22:15:34.223Z,53.63
2018-12-07T22:20:36.064Z,33.07
2018-12-07T22:25:38.109Z,44.03
2018-12-07T22:31:00.134Z,36.37
2018-12-07T22:36:02.022Z,31.07
2018-12-07T22:41:04.565Z,40.60
2018-12-07T22:51:44.932Z,52.90
2018-12-07T22:56:47.011Z,33.60
2018-12-07T23:01:49.148Z,46.63
2018-12-07T23:06:52.885Z,45.83
2018-12-07T23:11:54.828Z,52.40
2018-12-07T23:16:58.165Z,45.80
2018-12-07T23:22:00.273Z,41.27
2018-12-07T23:27:04.586Z,47.07
2018-12-07T23:32:07.278Z,60.17
2018-12-07T23:37:09.586Z,63.97
2018-12-07T23:42:12.622Z,70.47
2018-12-07T23:47:14.733Z,55.90
2018-12-07T23:52:17.466Z,35.83
2018-12-07T23:57:19.377Z,31.93
